createdAt,value
2023-04-18T00:00:15.875Z,11.38
2023-04-18T00:02:44.335Z,12.13
2023-04-18T00:05:18.241Z,11.32
2023-04-18T00:07:45.371Z,13.77
2023-04-18T00:10:12.472Z,10.80
2023-04-18T00:12:39.592Z,15.82
2023-04-18T00:15:09.511Z,12.07
2023-04-18T00:17:40.221Z,10.98
2023-04-18T00:20:11.316Z,13.77
2023-04-18T00:22:42.970Z,10.45
2023-04-18T00:25:11.225Z,10.85
2023-04-18T00:27:41.932Z,10.13
2023-04-18T00:30:09.892Z,10.77
2023-04-18T00:32:36.933Z,11.25
2023-04-18T00:35:04.639Z,11.45
2023-04-18T00:37:31.558Z,9.57
2023-04-18T00:39:58.592Z,11.63
2023-04-18T00:42:27.781Z,10.75
2023-04-18T00:44:54.945Z,11.02
2023-04-18T00:47:21.914Z,11.95
2023-04-18T00:49:49.333Z,13.32
2023-04-18T00:52:17.266Z,11.25
2023-04-18T00:54:45.715Z,10.98
2023-04-18T00:57:13.437Z,12.13
2023-04-18T00:59:40.766Z,12.48
2023-04-18T01:02:07.728Z,12.65
2023-04-18T01:04:34.888Z,13.00
2023-04-18T01:07:02.361Z,12.13
2023-04-18T01:09:29.659Z,10.38
2023-04-18T01:11:57.049Z,13.73
2023-04-18T01:14:24.236Z,13.13
2023-04-18T01:16:51.188Z,12.55
2023-04-18T01:19:18.512Z,12.63
2023-04-18T01:21:45.651Z,10.40
2023-04-18T01:24:20.267Z,11.77
2023-04-18T01:26:49.711Z,11.23
2023-04-18T01:29:16.965Z,11.30
2023-04-18T01:31:44.010Z,13.52
2023-04-18T01:34:11.786Z,12.13
2023-04-18T01:36:39.458Z,13.60
2023-04-18T01:39:07.128Z,14.40
2023-04-18T01:41:34.044Z,14.93
2023-04-18T01:44:01.640Z,12.52
2023-04-18T01:46:30.441Z,11.27
2023-04-18T01:48:58.751Z,12.80
2023-04-18T01:51:26.441Z,14.90
2023-04-18T01:53:53.591Z,10.57
2023-04-18T01:56:20.963Z,9.38
2023-04-18T01:58:48.019Z,11.77
2023-04-18T02:01:14.965Z,14.75
2023-04-18T02:03:42.040Z,11.50
2023-04-18T02:06:10.125Z,13.32
2023-04-18T02:08:37.092Z,10.40
2023-04-18T02:11:04.043Z,12.65
2023-04-18T02:13:31.184Z,10.88
2023-04-18T02:15:58.145Z,15.40
2023-04-18T02:18:26.708Z,13.90
2023-04-18T02:20:53.700Z,11.40
2023-04-18T02:23:20.785Z,13.55
2023-04-18T02:25:47.766Z,14.68
2023-04-18T02:28:14.726Z,16.55
2023-04-18T02:30:41.682Z,13.73
2023-04-18T02:33:11.499Z,12.70
2023-04-18T02:35:38.708Z,13.88
2023-04-18T02:38:05.935Z,14.15
2023-04-18T02:40:32.924Z,13.00
2023-04-18T02:42:59.916Z,13.25
2023-04-18T02:45:26.955Z,11.20
2023-04-18T02:47:57.021Z,16.55
2023-04-18T02:50:26.517Z,15.35
2023-04-18T02:52:53.742Z,10.35
2023-04-18T02:55:21.937Z,14.25
2023-04-18T02:57:49.109Z,13.15
2023-04-18T03:00:16.262Z,14.13
2023-04-18T03:02:43.463Z,15.13
2023-04-18T03:05:10.905Z,15.85
2023-04-18T03:07:38.020Z,14.93
2023-04-18T03:10:05.961Z,13.13
2023-04-18T03:12:32.994Z,14.88
2023-04-18T03:15:00.030Z,13.93
2023-04-18T03:17:28.132Z,14.70
2023-04-18T03:19:55.499Z,15.30
2023-04-18T03:22:22.411Z,17.55
2023-04-18T03:24:49.432Z,15.70
2023-04-18T03:27:16.387Z,13.50
2023-04-18T03:29:43.390Z,16.98
2023-04-18T03:32:10.740Z,19.25
2023-04-18T03:34:37.566Z,16.88
2023-04-18T03:37:04.434Z,17.15
2023-04-18T03:39:34.749Z,17.60
2023-04-18T03:42:02.289Z,18.10
2023-04-18T03:44:31.436Z,18.92
2023-04-18T03:46:58.782Z,19.38
2023-04-18T03:49:25.632Z,18.52
2023-04-18T03:51:52.536Z,18.30
2023-04-18T03:54:19.458Z,16.70
2023-04-18T03:56:46.836Z,17.00
2023-04-18T03:59:13.767Z,22.33
2023-04-18T04:01:40.894Z,19.23
2023-04-18T04:04:09.909Z,21.05
2023-04-18T04:06:37.248Z,17.92
2023-04-18T04:09:04.349Z,21.10
2023-04-18T04:11:31.339Z,21.33
2023-04-18T04:13:58.392Z,17.75
2023-04-18T04:16:25.449Z,20.08
2023-04-18T04:18:52.440Z,24.05
2023-04-18T04:21:21.136Z,20.67
2023-04-18T04:23:48.275Z,19.13
2023-04-18T04:26:15.273Z,20.58
2023-04-18T04:28:43.068Z,19.15
2023-04-18T04:31:10.496Z,21.02
2023-04-18T04:33:39.278Z,20.83
2023-04-18T04:36:09.301Z,20.33
2023-04-18T04:38:40.655Z,19.08
2023-04-18T04:41:08.419Z,18.90
2023-04-18T04:43:35.484Z,16.15
2023-04-18T04:46:07.787Z,20.48
2023-04-18T04:48:34.794Z,17.65
2023-04-18T04:51:01.836Z,20.67
2023-04-18T04:53:32.455Z,19.75
2023-04-18T04:55:59.603Z,20.40
2023-04-18T04:58:27.062Z,17.40
2023-04-18T05:00:54.890Z,18.27
2023-04-18T05:03:22.803Z,19.65
2023-04-18T05:05:49.879Z,18.88
2023-04-18T05:08:16.940Z,18.23
2023-04-18T05:10:44.559Z,17.85
2023-04-18T05:13:12.036Z,19.60
2023-04-18T05:15:40.237Z,22.50
2023-04-18T05:18:07.842Z,18.25
2023-04-18T05:20:34.809Z,17.33
2023-04-18T05:23:01.995Z,18.17
2023-04-18T05:25:30.075Z,17.23
2023-04-18T05:27:57.453Z,17.48
2023-04-18T05:30:27.396Z,20.60
2023-04-18T05:32:54.360Z,17.83
2023-04-18T05:35:21.261Z,19.38
2023-04-18T05:37:48.293Z,16.90
2023-04-18T05:40:15.432Z,21.33
2023-04-18T05:42:42.302Z,22.95
2023-04-18T05:45:10.048Z,20.00
2023-04-18T05:47:36.946Z,19.42
2023-04-18T05:50:04.272Z,18.08
2023-04-18T05:52:32.261Z,17.50
2023-04-18T05:54:59.408Z,18.33
2023-04-18T05:57:26.319Z,20.60
2023-04-18T05:59:56.058Z,19.75
2023-04-18T06:02:23.278Z,20.52
2023-04-18T06:04:51.715Z,20.20
2023-04-18T06:07:18.883Z,23.15
2023-04-18T06:09:46.187Z,20.40
2023-04-18T06:12:13.032Z,17.73
2023-04-18T06:14:40.131Z,20.27
2023-04-18T06:17:07.415Z,22.90
2023-04-18T06:19:34.375Z,21.45
2023-04-18T06:22:01.850Z,21.02
2023-04-18T06:24:30.743Z,18.98
2023-04-18T06:26:58.394Z,18.88
2023-04-18T06:29:28.370Z,22.52
2023-04-18T06:31:55.342Z,18.65
2023-04-18T06:34:22.878Z,22.55
2023-04-18T06:36:50.218Z,22.50
2023-04-18T06:39:17.201Z,20.13
2023-04-18T06:41:44.260Z,20.48
2023-04-18T06:44:11.133Z,19.20
2023-04-18T06:46:38.126Z,17.77
2023-04-18T06:49:05.150Z,21.50
2023-04-18T06:51:32.459Z,21.17
2023-04-18T06:53:59.642Z,18.73
2023-04-18T06:56:26.614Z,17.95
2023-04-18T06:58:53.663Z,21.63
2023-04-18T07:01:21.051Z,19.73
2023-04-18T07:03:48.297Z,18.02
2023-04-18T07:06:15.709Z,17.98
2023-04-18T07:08:42.620Z,20.60
2023-04-18T07:11:11.603Z,19.25
2023-04-18T07:13:38.682Z,17.55
2023-04-18T07:16:06.283Z,19.70
2023-04-18T07:18:38.112Z,19.90
2023-04-18T07:21:09.039Z,19.30
2023-04-18T07:23:36.936Z,18.85
2023-04-18T07:26:05.939Z,22.25
2023-04-18T07:28:33.451Z,19.52
2023-04-18T07:31:01.521Z,18.75
2023-04-18T07:33:31.849Z,17.13
2023-04-18T07:35:58.802Z,18.70
2023-04-18T07:38:25.989Z,16.88
2023-04-18T07:41:00.155Z,16.98
2023-04-18T07:43:27.212Z,17.50
2023-04-18T07:45:54.715Z,17.35
2023-04-18T07:48:22.830Z,17.98
2023-04-18T07:50:49.926Z,16.55
2023-04-18T07:53:17.097Z,16.15
2023-04-18T07:55:44.506Z,20.15
2023-04-18T07:58:11.432Z,17.10
2023-04-18T08:00:45.197Z,18.77
2023-04-18T08:03:13.324Z,18.23
2023-04-18T08:05:42.364Z,17.58
2023-04-18T08:08:14.086Z,19.17
2023-04-18T08:10:41.103Z,16.73
2023-04-18T08:13:08.282Z,16.13
2023-04-18T08:15:35.465Z,17.70
2023-04-18T08:18:02.516Z,20.75
2023-04-18T08:20:29.639Z,20.58
2023-04-18T08:23:07.478Z,16.05
2023-04-18T08:25:36.461Z,19.90
2023-04-18T08:28:04.147Z,21.45
2023-04-18T08:30:31.708Z,19.38
2023-04-18T08:33:00.983Z,21.23
2023-04-18T08:35:30.815Z,23.63
2023-04-18T08:37:57.840Z,20.02
2023-04-18T08:40:24.986Z,19.77
2023-04-18T08:42:53.917Z,20.95
2023-04-18T08:45:21.518Z,20.48
2023-04-18T08:47:48.530Z,21.52
2023-04-18T08:50:16.646Z,20.52
2023-04-18T08:52:49.934Z,21.40
2023-04-18T08:55:17.042Z,21.10
2023-04-18T08:57:44.829Z,23.40
2023-04-18T09:00:12.759Z,22.88
2023-04-18T09:02:45.242Z,21.85
2023-04-18T09:05:19.979Z,21.15
2023-04-18T09:07:51.749Z,19.77
2023-04-18T09:10:46.765Z,20.83
2023-04-18T09:13:13.853Z,22.90
2023-04-18T09:15:40.921Z,21.10
2023-04-18T09:18:10.681Z,21.38
2023-04-18T09:20:43.704Z,22.88
2023-04-18T09:25:44.395Z,21.15
2023-04-18T09:28:31.809Z,20.88
2023-04-18T09:31:12.295Z,21.92
2023-04-18T09:33:44.694Z,22.33
2023-04-18T09:36:24.681Z,22.88
2023-04-18T09:38:56.327Z,21.77
2023-04-18T09:41:27.591Z,22.38
2023-04-18T09:44:15.839Z,20.13
2023-04-18T09:46:46.528Z,22.63
2023-04-18T09:49:14.910Z,19.38
2023-04-18T09:51:44.701Z,18.35
2023-04-18T09:54:16.759Z,20.92
2023-04-18T09:56:50.679Z,21.53
2023-04-18T10:00:17.116Z,22.38
2023-04-18T10:03:21.394Z,23.48
2023-04-18T10:05:49.217Z,23.63
2023-04-18T10:08:16.984Z,22.02
2023-04-18T10:10:44.061Z,19.67
2023-04-18T10:13:14.002Z,23.08
2023-04-18T10:15:43.605Z,20.58
2023-04-18T10:18:16.527Z,21.55
2023-04-18T10:20:47.382Z,20.55
2023-04-18T10:23:37.007Z,21.88
2023-04-18T10:26:06.165Z,21.23
2023-04-18T10:28:57.441Z,23.00
2023-04-18T10:31:27.068Z,22.60
2023-04-18T10:36:31.280Z,19.92
2023-04-18T10:39:25.560Z,24.45
2023-04-18T10:41:52.588Z,23.63
2023-04-18T10:44:24.353Z,22.38
2023-04-18T10:46:51.378Z,23.63
2023-04-18T10:49:27.341Z,31.75
2023-04-18T10:51:58.767Z,20.15
2023-04-18T10:54:42.178Z,23.25
2023-04-18T10:57:10.320Z,21.00
2023-04-18T10:59:43.776Z,23.00
2023-04-18T11:02:23.285Z,22.58
2023-04-18T11:04:58.452Z,25.63
2023-04-18T11:07:40.639Z,21.35
2023-04-18T11:10:09.892Z,21.63
2023-04-18T11:12:41.476Z,20.27
2023-04-18T11:15:23.487Z,21.23
2023-04-18T11:18:02.622Z,20.17
2023-04-18T11:20:38.545Z,22.00
2023-04-18T11:23:21.535Z,20.27
2023-04-18T11:25:54.660Z,19.02
2023-04-18T11:28:24.911Z,19.60
2023-04-18T11:30:52.003Z,19.65
2023-04-18T11:33:18.938Z,17.65
2023-04-18T11:35:46.968Z,20.50
2023-04-18T11:38:18.943Z,16.83
2023-04-18T11:40:50.227Z,19.00
2023-04-18T11:43:22.781Z,19.88
2023-04-18T11:45:58.287Z,18.20
2023-04-18T11:48:37.915Z,17.88
2023-04-18T11:51:06.839Z,16.90
2023-04-18T11:53:38.879Z,18.45
2023-04-18T11:56:06.812Z,22.33
2023-04-18T11:58:35.291Z,16.85
2023-04-18T12:01:22.048Z,19.13
2023-04-18T12:04:08.954Z,16.77
2023-04-18T12:06:50.959Z,17.45
2023-04-18T12:09:19.160Z,17.67
2023-04-18T12:12:01.648Z,15.13
2023-04-18T12:14:29.439Z,17.48
2023-04-18T12:16:56.654Z,14.70
2023-04-18T12:19:28.366Z,15.27
2023-04-18T12:22:08.030Z,13.73
2023-04-18T12:24:36.052Z,13.65
2023-04-18T12:27:03.543Z,14.63
2023-04-18T12:29:30.910Z,13.98
2023-04-18T12:31:58.182Z,12.82
2023-04-18T12:34:25.178Z,15.18
2023-04-18T12:36:52.373Z,14.18
2023-04-18T12:39:19.289Z,13.18
2023-04-18T12:41:49.617Z,12.82
2023-04-18T12:44:17.372Z,13.52
2023-04-18T12:46:44.464Z,12.35
2023-04-18T12:49:11.448Z,12.80
2023-04-18T12:51:38.416Z,12.40
2023-04-18T12:54:06.811Z,12.90
2023-04-18T12:56:33.819Z,14.60
2023-04-18T12:59:00.685Z,13.10
2023-04-18T13:01:28.063Z,13.80
2023-04-18T13:04:08.283Z,11.65
2023-04-18T13:06:38.334Z,12.57
2023-04-18T13:09:05.288Z,10.98
2023-04-18T13:11:32.331Z,11.43
2023-04-18T13:13:59.874Z,11.07
2023-04-18T13:16:26.770Z,11.10
2023-04-18T13:18:53.709Z,11.80
2023-04-18T13:21:20.588Z,13.05
2023-04-18T13:23:47.719Z,10.45
2023-04-18T13:26:14.806Z,11.27
2023-04-18T13:28:41.743Z,12.32
2023-04-18T13:31:08.666Z,10.68
2023-04-18T13:33:35.766Z,13.00
2023-04-18T13:36:02.720Z,10.82
2023-04-18T13:38:29.623Z,10.30
2023-04-18T13:41:08.911Z,11.23
2023-04-18T13:43:38.278Z,11.32
2023-04-18T13:46:05.455Z,9.90
2023-04-18T13:48:32.505Z,11.02
2023-04-18T13:50:59.490Z,8.48
2023-04-18T13:53:26.380Z,9.02
2023-04-18T13:55:53.521Z,8.60
2023-04-18T13:58:20.539Z,7.05
2023-04-18T14:00:47.408Z,8.27
2023-04-18T14:03:14.846Z,8.48
2023-04-18T14:05:42.062Z,7.40
2023-04-18T14:08:09.118Z,10.10
2023-04-18T14:10:36.046Z,5.85
2023-04-18T14:13:03.032Z,6.55
2023-04-18T14:15:30.818Z,5.55
2023-04-18T14:17:58.019Z,7.38
2023-04-18T14:20:27.010Z,5.68
2023-04-18T14:22:56.857Z,7.30
2023-04-18T14:25:23.868Z,4.68
2023-04-18T14:28:07.840Z,5.03
2023-04-18T14:30:35.412Z,4.55
2023-04-18T14:33:02.637Z,5.10
2023-04-18T14:35:30.065Z,3.90
2023-04-18T14:37:57.342Z,4.13
2023-04-18T14:40:24.616Z,4.18
2023-04-18T14:42:51.645Z,4.00
2023-04-18T14:45:18.661Z,3.80
2023-04-18T14:47:46.006Z,3.60
2023-04-18T14:50:12.957Z,4.82
2023-04-18T14:52:40.823Z,5.72
2023-04-18T14:55:09.960Z,3.55
2023-04-18T14:57:37.757Z,3.38
2023-04-18T15:00:08.727Z,4.57
2023-04-18T15:02:36.302Z,4.40
2023-04-18T15:05:03.768Z,5.32
2023-04-18T15:07:31.098Z,3.92
2023-04-18T15:09:57.966Z,4.50
2023-04-18T15:12:25.300Z,4.60
2023-04-18T15:14:53.824Z,4.38
2023-04-18T15:17:21.129Z,6.10
2023-04-18T15:19:48.755Z,4.50
2023-04-18T15:22:16.246Z,3.63
2023-04-18T15:24:43.266Z,3.90
2023-04-18T15:27:11.039Z,5.88
2023-04-18T15:29:38.920Z,5.53
2023-04-18T15:32:06.762Z,4.65
2023-04-18T15:34:33.772Z,4.47
2023-04-18T15:37:01.024Z,5.90
2023-04-18T15:39:28.444Z,4.50
2023-04-18T15:41:55.579Z,4.07
2023-04-18T15:44:23.041Z,3.08
2023-04-18T15:46:51.021Z,4.68
2023-04-18T15:49:18.156Z,5.47
2023-04-18T15:51:45.078Z,4.22
2023-04-18T15:54:12.158Z,5.10
2023-04-18T15:56:39.461Z,6.15
2023-04-18T15:59:07.309Z,4.93
2023-04-18T16:01:35.725Z,4.47
2023-04-18T16:04:03.209Z,5.15
2023-04-18T16:06:31.216Z,6.07
2023-04-18T16:08:58.496Z,6.47
2023-04-18T16:11:28.940Z,3.83
2023-04-18T16:13:56.248Z,4.65
2023-04-18T16:16:23.311Z,4.90
2023-04-18T16:18:50.236Z,5.53
2023-04-18T16:21:17.380Z,4.70
2023-04-18T16:23:44.313Z,4.80
2023-04-18T16:26:11.274Z,4.72
2023-04-18T16:28:38.344Z,5.65
2023-04-18T16:31:08.395Z,4.10
2023-04-18T16:33:35.518Z,5.22
2023-04-18T16:36:03.583Z,4.03
2023-04-18T16:38:30.697Z,4.43
2023-04-18T16:40:58.768Z,5.18
2023-04-18T16:43:28.292Z,4.80
2023-04-18T16:45:58.066Z,5.10
2023-04-18T16:48:26.197Z,4.28
2023-04-18T16:50:54.337Z,6.40
2023-04-18T16:53:23.023Z,6.20
2023-04-18T16:55:50.581Z,12.38
2023-04-18T16:58:17.593Z,6.25
2023-04-18T17:00:45.048Z,5.28
2023-04-18T17:03:12.077Z,22.02
2023-04-18T17:05:39.498Z,5.70
2023-04-18T17:08:07.580Z,5.55
2023-04-18T17:10:34.926Z,7.38
2023-04-18T17:13:07.000Z,5.13
2023-04-18T17:15:34.352Z,4.97
2023-04-18T17:18:03.749Z,5.53
2023-04-18T17:20:31.141Z,5.55
2023-04-18T17:22:58.413Z,5.43
2023-04-18T17:25:25.425Z,5.25
2023-04-18T17:27:52.392Z,5.82
2023-04-18T17:30:20.464Z,5.88
2023-04-18T17:32:49.685Z,5.43
2023-04-18T17:35:20.437Z,6.32
2023-04-18T17:37:49.706Z,5.57
2023-04-18T17:40:16.709Z,6.07
2023-04-18T17:42:44.372Z,6.63
2023-04-18T17:45:12.413Z,7.60
2023-04-18T17:47:41.157Z,5.85
2023-04-18T17:50:09.791Z,6.90
2023-04-18T17:52:37.095Z,5.55
2023-04-18T17:55:04.517Z,5.35
2023-04-18T17:57:38.206Z,5.22
2023-04-18T18:00:10.577Z,6.05
2023-04-18T18:02:38.675Z,6.95
2023-04-18T18:05:06.401Z,6.45
2023-04-18T18:07:37.315Z,7.25
2023-04-18T18:10:06.713Z,6.47
2023-04-18T18:12:36.235Z,6.35
2023-04-18T18:15:03.579Z,6.50
2023-04-18T18:17:30.503Z,7.63
2023-04-18T18:19:57.520Z,8.40
2023-04-18T18:22:26.097Z,6.53
2023-04-18T18:24:53.254Z,6.45
2023-04-18T18:27:21.439Z,7.05
2023-04-18T18:29:50.897Z,6.97
2023-04-18T18:32:17.889Z,6.65
2023-04-18T18:34:45.936Z,6.65
2023-04-18T18:37:12.928Z,7.35
2023-04-18T18:39:40.037Z,7.03
2023-04-18T18:42:07.028Z,6.70
2023-04-18T18:44:34.955Z,7.80
2023-04-18T18:47:03.054Z,6.40
2023-04-18T18:49:31.473Z,7.00
2023-04-18T18:51:59.545Z,8.65
2023-04-18T18:54:27.376Z,8.90
2023-04-18T18:56:54.304Z,6.72
2023-04-18T18:59:23.275Z,7.38
2023-04-18T19:01:52.001Z,7.07
2023-04-18T19:04:20.291Z,7.18
2023-04-18T19:06:50.196Z,7.28
2023-04-18T19:09:17.393Z,7.57
2023-04-18T19:11:44.380Z,6.70
2023-04-18T19:14:11.287Z,7.70
2023-04-18T19:16:40.838Z,6.63
2023-04-18T19:19:08.704Z,7.50
2023-04-18T19:21:35.773Z,6.93
2023-04-18T19:24:02.820Z,6.13
2023-04-18T19:26:31.095Z,6.53
2023-04-18T19:28:58.596Z,6.72
2023-04-18T19:31:28.518Z,8.25
2023-04-18T19:33:55.501Z,5.95
2023-04-18T19:36:22.595Z,6.45
2023-04-18T19:38:49.538Z,8.00
2023-04-18T19:41:16.826Z,8.35
2023-04-18T19:43:44.064Z,7.60
2023-04-18T19:46:11.597Z,7.70
2023-04-18T19:48:38.716Z,9.55
2023-04-18T19:51:06.812Z,6.63
2023-04-18T19:53:34.627Z,9.85
2023-04-18T19:56:01.641Z,5.90
2023-04-18T19:58:46.013Z,8.15
2023-04-18T20:01:15.660Z,7.20
2023-04-18T20:03:43.237Z,7.38
2023-04-18T20:06:12.623Z,6.53
2023-04-18T20:08:46.357Z,9.20
2023-04-18T20:11:16.997Z,7.25
2023-04-18T20:13:45.105Z,7.28
2023-04-18T20:16:12.448Z,9.57
2023-04-18T20:18:41.679Z,8.10
2023-04-18T20:21:10.373Z,6.82
2023-04-18T20:23:38.195Z,8.18
2023-04-18T20:26:05.542Z,9.43
2023-04-18T20:28:33.617Z,10.45
2023-04-18T20:31:01.890Z,8.52
2023-04-18T20:33:29.387Z,9.38
2023-04-18T20:35:57.796Z,12.02
2023-04-18T20:38:26.050Z,8.98
2023-04-18T20:40:54.399Z,10.43
2023-04-18T20:43:21.749Z,9.63
2023-04-18T20:45:52.006Z,10.05
2023-04-18T20:48:20.037Z,11.05
2023-04-18T20:50:51.673Z,10.73
2023-04-18T20:53:27.326Z,10.85
2023-04-18T20:55:54.720Z,10.18
2023-04-18T20:58:22.078Z,9.52
2023-04-18T21:00:49.045Z,10.05
2023-04-18T21:03:16.930Z,8.77
2023-04-18T21:05:45.179Z,10.82
2023-04-18T21:08:15.967Z,10.98
2023-04-18T21:10:42.995Z,11.05
2023-04-18T21:13:12.746Z,10.13
2023-04-18T21:15:42.501Z,11.45
2023-04-18T21:18:10.032Z,10.98
2023-04-18T21:20:37.695Z,12.43
2023-04-18T21:23:04.675Z,10.90
2023-04-18T21:25:31.858Z,12.18
2023-04-18T21:27:59.611Z,12.63
2023-04-18T21:30:26.664Z,12.02
2023-04-18T21:32:53.616Z,11.77
2023-04-18T21:35:22.007Z,12.65
2023-04-18T21:37:51.350Z,12.45
2023-04-18T21:40:19.260Z,12.43
2023-04-18T21:42:47.681Z,11.30
2023-04-18T21:45:15.649Z,12.63
2023-04-18T21:47:43.270Z,16.23
2023-04-18T21:50:11.408Z,16.80
2023-04-18T21:52:38.496Z,14.60
2023-04-18T21:55:06.506Z,15.45
2023-04-18T21:57:33.582Z,13.40
2023-04-18T22:00:00.616Z,13.00
2023-04-18T22:02:28.101Z,14.75
2023-04-18T22:04:55.083Z,14.38
2023-04-18T22:07:24.232Z,17.52
2023-04-18T22:09:51.433Z,14.57
2023-04-18T22:12:18.697Z,13.52
2023-04-18T22:14:49.251Z,13.85
2023-04-18T22:17:16.334Z,13.70
2023-04-18T22:19:44.467Z,14.80
2023-04-18T22:22:11.838Z,14.45
2023-04-18T22:24:39.108Z,15.68
2023-04-18T22:27:08.159Z,14.88
2023-04-18T22:29:35.355Z,16.45
2023-04-18T22:32:02.625Z,14.05
2023-04-18T22:34:29.868Z,15.73
2023-04-18T22:36:57.089Z,16.13
2023-04-18T22:39:25.290Z,15.02
2023-04-18T22:41:52.177Z,14.23
2023-04-18T22:44:19.365Z,13.73
2023-04-18T22:46:48.328Z,17.92
2023-04-18T22:49:15.682Z,16.77
2023-04-18T22:51:44.008Z,14.98
2023-04-18T22:54:11.191Z,15.52
2023-04-18T22:56:38.338Z,15.00
2023-04-18T22:59:05.831Z,13.60
2023-04-18T23:01:34.714Z,13.27
2023-04-18T23:04:02.395Z,14.35
2023-04-18T23:06:30.397Z,14.27
2023-04-18T23:11:42.412Z,14.70
2023-04-18T23:14:10.043Z,13.82
2023-04-18T23:16:36.989Z,15.10
2023-04-18T23:19:04.851Z,15.52
2023-04-18T23:21:32.295Z,14.18
2023-04-18T23:24:00.198Z,18.02
2023-04-18T23:26:28.401Z,14.50
2023-04-18T23:28:55.761Z,16.52
2023-04-18T23:31:23.070Z,15.63
2023-04-18T23:33:50.022Z,18.33
2023-04-18T23:36:17.106Z,14.70
2023-04-18T23:38:44.453Z,16.30
2023-04-18T23:41:11.544Z,16.77
2023-04-18T23:43:38.519Z,15.43
2023-04-18T23:46:05.827Z,18.23
2023-04-18T23:48:32.748Z,16.35
2023-04-18T23:51:00.321Z,17.35
2023-04-18T23:53:27.274Z,16.67
2023-04-18T23:55:54.475Z,16.60
2023-04-18T23:58:21.864Z,15.70
